Time;durP1;ratioP1;P1;durP2;ratioP2;P2;SDS_P1;SDS_P2;PMS_P1;PMS_P2;Temp;Humidity;BMP_temperature;BMP_pressure;BME280_temperature;BME280_humidity;BME280_pressure;Samples;Min_cycle;Max_cycle;Signal;HPM_P1;HPM_P2
2021/12/27 00:02:18;;;;;;;;;7.25;6.50;;;;;10.80;95.21;99235.16;5038794;28;45830;-66
2021/12/27 00:04:44;;;;;;;;;14.50;9.50;;;;;10.84;94.84;99238.44;5019581;28;45379;-71
2021/12/27 00:07:10;;;;;;;;;6.00;6.00;;;;;10.81;95.02;99228.97;5038209;28;45327;-66
2021/12/27 00:09:36;;;;;;;;;8.00;6.00;;;;;10.81;94.53;99232.41;5038305;28;46424;-66
2021/12/27 00:12:02;;;;;;;;;6.50;5.75;;;;;10.82;94.90;99223.59;5035932;28;45296;-71
2021/12/27 00:14:27;;;;;;;;;6.25;6.25;;;;;10.86;94.93;99226.03;5037793;28;45166;-70
2021/12/27 00:16:53;;;;;;;;;10.25;5.25;;;;;10.85;94.52;99214.66;5037595;28;45549;-71
2021/12/27 00:19:18;;;;;;;;;8.25;4.00;;;;;10.79;94.71;99202.75;5037825;28;45261;-70
2021/12/27 00:21:44;;;;;;;;;5.00;5.00;;;;;10.83;94.33;99211.28;5037427;28;45388;-67
2021/12/27 00:24:09;;;;;;;;;4.25;4.00;;;;;10.84;93.93;99210.34;5019505;28;45367;-72
2021/12/27 00:26:34;;;;;;;;;5.00;4.75;;;;;10.84;94.36;99215.59;5037988;28;45262;-72
2021/12/27 00:29:00;;;;;;;;;4.75;4.00;;;;;10.86;93.81;99216.34;5036989;28;46096;-69
2021/12/27 00:31:25;;;;;;;;;7.25;4.75;;;;;10.87;94.55;99211.94;5037619;28;45384;-72
2021/12/27 00:33:50;;;;;;;;;5.25;4.25;;;;;10.87;94.02;99209.28;5040926;28;45278;-71
2021/12/27 00:36:16;;;;;;;;;6.25;3.00;;;;;10.86;94.17;99199.72;5042579;28;45566;-71
2021/12/27 00:38:41;;;;;;;;;4.00;3.75;;;;;10.82;94.38;99193.81;5043544;28;45444;-71
2021/12/27 00:41:06;;;;;;;;;5.00;3.00;;;;;10.80;93.78;99193.06;5048366;28;45541;-71
2021/12/27 00:43:32;;;;;;;;;5.50;3.25;;;;;10.77;94.14;99186.22;5026789;28;45321;-72
2021/12/27 00:45:57;;;;;;;;;5.00;3.00;;;;;10.86;94.21;99195.31;5041036;28;45544;-69
2021/12/27 00:48:24;;;;;;;;;1.75;1.00;;;;;10.81;94.42;99197.41;5043019;28;46253;-67
2021/12/27 00:50:50;;;;;;;;;4.75;3.75;;;;;10.86;94.20;99207.59;5040691;28;45324;-64
2021/12/27 00:53:15;;;;;;;;;7.25;6.00;;;;;10.84;94.14;99196.34;5040849;28;46012;-67
2021/12/27 00:55:40;;;;;;;;;4.75;3.75;;;;;10.86;94.88;99197.09;5040834;28;45328;-68
2021/12/27 00:58:06;;;;;;;;;5.00;3.25;;;;;10.85;94.24;99192.75;5040483;28;45415;-70
2021/12/27 01:00:31;;;;;;;;;3.25;2.00;;;;;10.87;94.43;99196.13;5040622;28;45470;-71
2021/12/27 01:02:57;;;;;;;;;5.75;3.00;;;;;10.80;93.91;99190.44;5040791;28;45469;-70
2021/12/27 01:05:24;;;;;;;;;3.00;2.25;;;;;10.86;94.25;99194.44;5040760;28;45419;-71
2021/12/27 01:07:50;;;;;;;;;4.00;4.00;;;;;10.86;94.10;99187.41;5041287;28;46266;-71
2021/12/27 01:13:16;;;;;;;;;3.75;3.25;;;;;10.87;94.00;99180.34;5041120;28;45412;-68
2021/12/27 01:18:07;;;;;;;;;3.50;3.50;;;;;10.87;93.80;99189.09;5040057;28;45385;-66
2021/12/27 01:20:35;;;;;;;;;3.75;3.00;;;;;10.85;94.31;99184.88;5022045;28;45253;-71
2021/12/27 01:23:00;;;;;;;;;3.00;2.75;;;;;10.84;93.87;99186.69;5022811;28;45296;-70
2021/12/27 01:25:27;;;;;;;;;3.00;3.00;;;;;10.82;94.14;99183.31;5039999;28;45415;-69
2021/12/27 01:27:52;;;;;;;;;3.00;3.00;;;;;10.85;93.85;99171.72;5039461;28;46086;-72
2021/12/27 01:30:20;;;;;;;;;4.00;3.75;;;;;10.85;94.22;99176.97;5041161;28;45287;-73
2021/12/27 01:32:51;;;;;;;;;1.00;1.00;;;;;10.85;93.64;99172.59;5042949;28;45388;-70
2021/12/27 01:35:17;;;;;;;;;3.00;2.00;;;;;10.85;93.99;99167.31;5041655;28;45486;-74
2021/12/27 01:37:45;;;;;;;;;5.75;3.25;;;;;10.84;93.63;99159.50;5042790;28;46153;-73
2021/12/27 01:40:13;;;;;;;;;4.00;4.00;;;;;10.88;93.65;99161.00;5043913;28;45352;-72
2021/12/27 01:43:03;;;;;;;;;4.00;3.00;;;;;10.89;93.75;99166.19;5040729;28;45176;-72
2021/12/27 01:45:28;;;;;;;;;2.75;2.75;;;;;10.91;93.66;99158.16;5039378;28;45372;-71
2021/12/27 01:47:54;;;;;;;;;3.50;2.50;;;;;10.90;93.47;99152.09;5039575;28;46037;-72
2021/12/27 01:50:20;;;;;;;;;2.75;2.50;;;;;10.93;93.16;99144.00;5039832;28;45329;-68
2021/12/27 01:52:45;;;;;;;;;4.50;2.00;;;;;10.88;93.93;99135.56;5021856;28;45543;-71
2021/12/27 01:55:11;;;;;;;;;4.00;4.00;;;;;10.98;93.51;99140.22;5041882;28;45457;-71
2021/12/27 01:57:37;;;;;;;;;4.25;3.00;;;;;10.98;93.52;99134.97;5047514;28;45405;-71
2021/12/27 02:00:04;;;;;;;;;7.50;3.00;;;;;11.01;93.34;99145.28;5039892;28;45381;-67
2021/12/27 02:02:31;;;;;;;;;4.50;3.00;;;;;11.00;93.05;99143.59;5040536;28;45304;-73
2021/12/27 02:04:56;;;;;;;;;3.75;3.75;;;;;11.03;92.96;99157.38;5040585;28;45333;-72
2021/12/27 02:07:21;;;;;;;;;3.00;3.00;;;;;11.00;93.35;99140.97;5038575;28;46046;-72
2021/12/27 02:09:58;;;;;;;;;2.75;2.75;;;;;11.03;93.49;99153.91;5039438;28;45427;-73
2021/12/27 02:12:23;;;;;;;;;6.25;2.75;;;;;11.02;92.96;99142.53;5039708;28;45378;-69
2021/12/27 02:14:49;;;;;;;;;4.00;3.00;;;;;11.03;93.54;99132.88;5039729;28;45333;-71
2021/12/27 02:17:18;;;;;;;;;5.25;3.00;;;;;11.04;93.46;99143.28;5039200;28;46273;-71
2021/12/27 02:19:51;;;;;;;;;4.00;3.75;;;;;11.03;93.18;99143.38;5042583;28;45217;-71
2021/12/27 02:22:16;;;;;;;;;3.50;2.75;;;;;10.99;93.84;99142.72;5039438;28;45278;-72
2021/12/27 02:24:42;;;;;;;;;5.25;4.25;;;;;10.95;93.96;99142.09;5039340;28;45333;-70
2021/12/27 02:27:07;;;;;;;;;6.00;5.00;;;;;10.87;94.51;99128.59;5039180;28;46529;-71
2021/12/27 02:29:33;;;;;;;;;4.75;2.75;;;;;10.90;94.38;99133.66;5040196;28;45193;-70
2021/12/27 02:31:58;;;;;;;;;4.00;4.00;;;;;10.88;94.91;99124.16;5039598;28;45268;-70
2021/12/27 02:34:24;;;;;;;;;3.50;3.50;;;;;10.88;94.22;99116.28;5039027;28;45609;-69
2021/12/27 02:36:49;;;;;;;;;6.25;3.75;;;;;10.89;94.54;99121.47;5038754;28;53383;-67
2021/12/27 02:39:16;;;;;;;;;8.00;4.00;;;;;10.88;94.57;99119.78;5039542;28;45229;-71
2021/12/27 02:41:41;;;;;;;;;3.75;2.75;;;;;10.88;94.04;99122.41;5039509;28;45230;-66
2021/12/27 02:44:06;;;;;;;;;4.25;4.25;;;;;10.88;94.37;99119.78;5039734;28;45170;-64
2021/12/27 02:46:32;;;;;;;;;7.00;3.75;;;;;10.82;94.50;99109.66;5041249;28;45397;-72
2021/12/27 02:48:58;;;;;;;;;3.00;3.00;;;;;10.81;95.02;99114.06;5039500;28;45328;-69
2021/12/27 02:51:23;;;;;;;;;4.00;4.00;;;;;10.86;95.03;99116.41;5039959;28;45332;-68
2021/12/27 02:53:50;;;;;;;;;4.25;4.25;;;;;10.80;94.20;99107.09;5043785;28;45400;-68
2021/12/27 02:56:17;;;;;;;;;5.50;5.25;;;;;10.84;94.36;99113.03;5041896;28;46296;-67
2021/12/27 02:58:43;;;;;;;;;8.00;4.75;;;;;10.83;94.86;99111.34;5045979;28;45388;-71
2021/12/27 03:01:11;;;;;;;;;5.00;3.75;;;;;10.79;94.97;99102.78;5053084;28;44794;-67
2021/12/27 03:03:38;;;;;;;;;9.50;4.50;;;;;10.81;94.37;99100.06;5049722;28;45357;-67
2021/12/27 03:06:05;;;;;;;;;4.50;3.50;;;;;10.80;94.29;99101.00;5047062;28;45407;-71
2021/12/27 03:08:31;;;;;;;;;5.25;5.00;;;;;10.81;94.21;99098.28;5040165;28;45325;-71
2021/12/27 03:10:59;;;;;;;;;7.00;6.50;;;;;10.81;94.67;99097.44;5037572;28;45463;-71
2021/12/27 03:13:28;;;;;;;;;6.50;5.50;;;;;10.81;94.60;99103.53;5038796;28;45440;-70
2021/12/27 03:16:10;;;;;;;;;8.00;4.25;;;;;10.80;94.04;99107.09;5039008;28;45436;-69
2021/12/27 03:18:37;;;;;;;;;5.75;4.75;;;;;10.82;94.30;99102.59;5039044;28;45365;-68
2021/12/27 03:21:04;;;;;;;;;11.25;5.25;;;;;10.81;94.31;99097.44;5039705;28;45273;-70
2021/12/27 03:23:30;;;;;;;;;19.25;12.75;;;;;10.84;94.23;99094.59;5038856;28;45611;-69
2021/12/27 03:25:56;;;;;;;;;5.25;5.00;;;;;10.85;94.04;99100.69;5038271;28;45522;-68
2021/12/27 03:28:22;;;;;;;;;7.00;5.00;;;;;10.77;93.92;99083.63;5037980;28;45123;-73
2021/12/27 03:30:48;;;;;;;;;5.75;4.00;;;;;10.84;93.84;99093.75;5020946;28;45327;-68
2021/12/27 03:33:15;;;;;;;;;7.75;5.50;;;;;10.87;93.88;99086.53;5038920;28;45527;-68
2021/12/27 03:35:51;;;;;;;;;5.25;5.00;;;;;10.82;93.57;99072.81;5038603;28;46194;-71
2021/12/27 03:38:18;;;;;;;;;7.25;5.00;;;;;10.88;93.59;99082.09;5038154;28;45222;-73
2021/12/27 03:40:45;;;;;;;;;6.50;5.75;;;;;10.93;93.01;99078.22;5038081;28;45446;-70
2021/12/27 03:43:11;;;;;;;;;5.00;5.00;;;;;10.92;92.97;99073.91;5038557;28;45238;-72
2021/12/27 03:45:39;;;;;;;;;7.25;5.00;;;;;10.92;93.08;99070.41;5021754;28;47633;-71
2021/12/27 03:48:06;;;;;;;;;10.75;5.00;;;;;10.93;93.43;99072.09;5038744;28;45218;-72
2021/12/27 03:50:33;;;;;;;;;7.75;4.00;;;;;10.93;92.79;99066.84;5040048;28;45451;-74
2021/12/27 03:52:58;;;;;;;;;4.00;4.00;;;;;10.92;93.03;99062.53;5038007;28;45370;-71
2021/12/27 03:55:25;;;;;;;;;4.75;4.75;;;;;10.94;93.35;99056.22;5037639;28;46095;-73
2021/12/27 03:57:55;;;;;;;;;5.50;4.75;;;;;10.94;93.04;99061.50;5037747;28;45454;-66
2021/12/27 04:02:52;;;;;;;;;6.00;4.00;;;;;10.72;93.08;99019.97;5038380;28;45288;-71
2021/12/27 04:05:19;;;;;;;;;6.00;5.00;;;;;10.95;93.04;99051.78;5037927;28;46146;-71
2021/12/27 04:07:47;;;;;;;;;8.25;6.00;;;;;10.96;93.13;99059.59;5037210;28;45328;-71
2021/12/27 04:10:14;;;;;;;;;5.25;4.75;;;;;10.94;93.10;99056.22;5038400;28;45424;-70
2021/12/27 04:12:40;;;;;;;;;4.00;4.00;;;;;10.91;92.62;99045.91;5020622;28;45289;-70
2021/12/27 04:15:09;;;;;;;;;10.50;4.25;;;;;10.95;92.63;99051.78;5037440;28;45447;-72
2021/12/27 04:17:35;;;;;;;;;7.00;6.50;;;;;10.98;92.84;99056.03;5037344;28;45246;-70
2021/12/27 04:20:01;;;;;;;;;5.25;3.75;;;;;10.98;92.68;99054.22;5037223;28;45329;-71
2021/12/27 04:22:26;;;;;;;;;4.25;4.00;;;;;10.96;92.34;99051.72;5037291;28;45281;-73
2021/12/27 04:24:51;;;;;;;;;5.50;4.75;;;;;10.99;92.58;99049.81;5037741;28;45483;-69
2021/12/27 04:27:17;;;;;;;;;7.75;5.50;;;;;10.96;92.86;99048.22;5037716;28;45391;-72
2021/12/27 04:29:44;;;;;;;;;6.00;4.50;;;;;10.94;92.91;99040.44;5037981;28;45275;-72
2021/12/27 04:32:09;;;;;;;;;5.50;5.50;;;;;10.91;92.25;99031.91;5038400;28;45336;-72
2021/12/27 04:34:35;;;;;;;;;6.25;4.75;;;;;10.96;92.63;99045.59;5038393;28;45320;-73
2021/12/27 04:37:01;;;;;;;;;5.75;5.00;;;;;10.93;92.61;99044.03;5040549;28;45317;-72
2021/12/27 04:39:26;;;;;;;;;6.25;5.50;;;;;10.94;92.23;99040.44;5037254;28;45357;-72
2021/12/27 04:41:53;;;;;;;;;4.00;4.00;;;;;10.95;92.17;99050.03;5037641;28;45840;-72
2021/12/27 04:44:19;;;;;;;;;6.50;5.25;;;;;10.92;92.06;99046.75;5037439;28;48341;-72
2021/12/27 04:46:44;;;;;;;;;7.50;5.25;;;;;10.92;92.09;99039.69;5037313;28;45348;-71
2021/12/27 04:49:10;;;;;;;;;7.50;5.00;;;;;10.96;92.80;99045.59;5037793;28;45409;-72
2021/12/27 04:51:35;;;;;;;;;6.50;4.50;;;;;10.98;92.39;99048.97;5037692;28;45588;-72
2021/12/27 04:54:01;;;;;;;;;6.50;5.75;;;;;10.98;91.78;99048.97;5036908;28;46294;-72
2021/12/27 04:56:26;;;;;;;;;8.25;5.00;;;;;11.01;92.37;99053.19;5036528;28;45384;-73
2021/12/27 04:58:51;;;;;;;;;12.75;5.00;;;;;10.98;92.01;99051.59;5037590;28;45783;-73
2021/12/27 05:01:17;;;;;;;;;7.75;5.75;;;;;11.02;92.16;99057.50;5038005;28;45393;-72
2021/12/27 05:03:43;;;;;;;;;5.25;3.25;;;;;10.97;91.64;99052.53;5037673;28;45943;-73
2021/12/27 05:06:08;;;;;;;;;6.25;5.00;;;;;11.03;91.71;99069.72;5037404;28;45359;-74
2021/12/27 05:08:34;;;;;;;;;9.00;5.75;;;;;11.03;92.25;99070.53;5036672;28;45554;-71
2021/12/27 05:10:59;;;;;;;;;4.00;4.00;;;;;10.94;92.00;99047.47;5037175;28;45495;-73
2021/12/27 05:13:25;;;;;;;;;8.50;6.50;;;;;11.03;91.73;99065.28;5019233;28;46244;-71
2021/12/27 05:15:50;;;;;;;;;8.75;6.75;;;;;10.95;91.17;99073.69;5036728;28;45480;-71
2021/12/27 05:18:17;;;;;;;;;6.75;4.25;;;;;10.96;91.83;99069.28;5037751;28;45360;-72
2021/12/27 05:20:43;;;;;;;;;11.00;6.50;;;;;11.00;91.63;99075.19;5041244;28;45519;-73
2021/12/27 05:23:08;;;;;;;;;7.25;4.75;;;;;11.00;91.76;99070.75;5042058;28;45498;-74
2021/12/27 05:25:34;;;;;;;;;14.25;7.25;;;;;10.99;92.09;99068.22;5045197;28;45380;-70
2021/12/27 05:27:59;;;;;;;;;7.00;6.00;;;;;11.01;91.76;99066.34;5046138;28;46316;-74
2021/12/27 05:30:25;;;;;;;;;6.50;5.00;;;;;11.01;91.50;99061.09;5042381;28;45555;-72
2021/12/27 05:32:50;;;;;;;;;8.25;4.25;;;;;10.93;91.67;99057.19;5005596;28;48301;-72
2021/12/27 05:35:16;;;;;;;;;15.00;11.50;;;;;10.96;91.44;99054.34;5039565;28;45322;-70
2021/12/27 05:37:43;;;;;;;;;7.00;6.25;;;;;11.02;91.84;99062.78;5040567;28;45352;-72
2021/12/27 05:40:22;;;;;;;;;11.00;6.50;;;;;11.01;91.48;99055.81;5040553;28;45352;-71
2021/12/27 05:42:49;;;;;;;;;9.50;6.75;;;;;11.00;91.76;99047.06;5041391;28;46902;-73
2021/12/27 05:45:15;;;;;;;;;7.75;6.25;;;;;10.93;91.33;99025.59;5039821;28;45508;-67
2021/12/27 05:47:41;;;;;;;;;10.50;7.25;;;;;10.99;91.79;99034.03;5040244;28;45311;-68
2021/12/27 05:50:07;;;;;;;;;7.75;6.25;;;;;11.00;91.85;99025.19;5022707;28;45565;-73
2021/12/27 05:52:33;;;;;;;;;9.00;6.00;;;;;10.96;91.60;99000.88;5040488;28;46906;-73
2021/12/27 05:54:59;;;;;;;;;12.50;7.75;;;;;10.99;91.02;99008.56;5039985;28;45391;-71
2021/12/27 05:57:24;;;;;;;;;10.75;7.75;;;;;11.00;91.33;98996.25;5039419;28;45600;-73
2021/12/27 05:59:50;;;;;;;;;10.00;6.00;;;;;10.99;91.27;98984.03;5039778;28;45383;-72
2021/12/27 06:02:15;;;;;;;;;9.25;7.00;;;;;10.95;91.58;98978.13;5039550;28;46692;-73
2021/12/27 06:04:40;;;;;;;;;13.25;11.00;;;;;10.96;91.35;98978.03;5039626;28;45343;-72
2021/12/27 06:07:06;;;;;;;;;9.00;7.50;;;;;10.96;91.42;98967.53;5040342;28;45480;-72
2021/12/27 06:09:31;;;;;;;;;9.50;7.75;;;;;10.96;91.87;98964.88;5042792;28;45544;-72
2021/12/27 06:11:57;;;;;;;;;12.50;8.25;;;;;10.87;91.92;98941.84;5038749;28;45835;-72
2021/12/27 06:14:22;;;;;;;;;11.75;9.00;;;;;10.94;91.95;98943.09;5040646;28;45313;-71
2021/12/27 06:16:47;;;;;;;;;11.25;10.25;;;;;10.94;91.72;98934.34;5040714;28;45445;-70
2021/12/27 06:19:13;;;;;;;;;7.00;6.00;;;;;10.92;91.68;98925.72;5041344;28;45171;-72
2021/12/27 06:21:38;;;;;;;;;11.50;8.25;;;;;10.91;91.37;98922.28;5041066;28;45349;-71
2021/12/27 06:24:04;;;;;;;;;11.75;8.00;;;;;10.88;91.26;98906.69;5040230;28;45363;-71
2021/12/27 06:26:29;;;;;;;;;12.00;8.00;;;;;10.84;90.77;98891.22;5039138;28;45222;-67
2021/12/27 06:28:55;;;;;;;;;6.00;6.00;;;;;10.80;91.78;98882.72;5039385;28;45235;-68
2021/12/27 06:31:20;;;;;;;;;13.25;10.00;;;;;10.80;90.97;98877.44;5037990;28;46129;-71
2021/12/27 06:33:46;;;;;;;;;9.75;7.50;;;;;10.75;91.38;98875.13;5039733;28;45237;-67
2021/12/27 06:36:12;;;;;;;;;10.50;7.75;;;;;10.75;91.20;98867.22;5021056;28;45296;-66
2021/12/27 06:38:37;;;;;;;;;9.75;9.50;;;;;10.74;90.92;98862.09;5038863;28;45730;-73
2021/12/27 06:41:03;;;;;;;;;8.00;6.75;;;;;10.71;91.44;98846.53;5039225;28;45637;-71
2021/12/27 06:43:30;;;;;;;;;8.75;6.25;;;;;10.68;90.91;98839.66;5039338;28;45365;-69
2021/12/27 06:45:57;;;;;;;;;9.50;7.75;;;;;10.61;90.99;98838.41;5039026;28;45262;-70
2021/12/27 06:48:22;;;;;;;;;6.25;6.25;;;;;10.61;91.13;98838.41;5039026;28;45274;-72
2021/12/27 06:50:47;;;;;;;;;10.25;9.75;;;;;10.59;90.71;98835.88;5020532;28;46341;-71
2021/12/27 06:53:13;;;;;;;;;11.50;9.00;;;;;10.37;91.14;98807.56;5021461;28;45218;-72
2021/12/27 06:55:38;;;;;;;;;9.50;7.25;;;;;10.56;91.35;98846.59;5040299;28;45453;-72
2021/12/27 06:58:04;;;;;;;;;7.00;7.00;;;;;10.55;91.15;98844.09;5039050;28;45265;-73
2021/12/27 07:00:29;;;;;;;;;13.50;9.75;;;;;10.52;91.43;98832.84;5038798;28;45250;-72
2021/12/27 07:02:55;;;;;;;;;7.00;5.75;;;;;10.54;91.06;98845.03;5039699;28;45363;-72
2021/12/27 07:05:20;;;;;;;;;9.50;6.50;;;;;10.48;90.76;98838.38;5043582;28;45325;-69
2021/12/27 07:07:46;;;;;;;;;9.00;9.00;;;;;10.49;91.46;98851.44;5044054;28;45673;-68
2021/12/27 07:10:13;;;;;;;;;9.75;6.00;;;;;10.48;91.21;98856.78;5046554;28;45529;-72
2021/12/27 07:12:39;;;;;;;;;11.50;8.00;;;;;10.48;91.04;98859.41;5044025;28;45256;-72
2021/12/27 07:15:06;;;;;;;;;13.75;11.25;;;;;10.45;91.25;98854.38;5040228;28;45381;-73
2021/12/27 07:17:32;;;;;;;;;9.75;9.00;;;;;10.44;91.07;98858.81;5039459;28;45599;-70
2021/12/27 07:19:58;;;;;;;;;11.25;10.25;;;;;10.44;91.63;98847.44;5038178;28;46185;-69
2021/12/27 07:22:23;;;;;;;;;10.00;7.75;;;;;10.45;92.42;98844.72;5039368;28;45253;-73
2021/12/27 07:24:48;;;;;;;;;8.50;6.00;;;;;10.43;91.60;98848.38;5040122;28;45177;-70
2021/12/27 07:27:14;;;;;;;;;8.00;8.00;;;;;10.41;91.88;98847.63;5038044;28;45641;-69
2021/12/27 07:29:39;;;;;;;;;6.00;6.00;;;;;10.37;91.60;98845.19;5037706;28;46603;-66
2021/12/27 07:32:06;;;;;;;;;12.50;9.75;;;;;10.37;91.95;98836.47;5037863;28;45228;-69
2021/12/27 07:34:32;;;;;;;;;11.75;9.00;;;;;10.36;92.17;98843.50;5038487;28;45387;-73
2021/12/27 07:36:57;;;;;;;;;12.50;9.50;;;;;10.36;92.24;98847.94;5038866;28;45393;-72
2021/12/27 07:39:25;;;;;;;;;6.75;6.00;;;;;10.30;91.91;98857.06;5039589;28;46103;-72
2021/12/27 07:41:50;;;;;;;;;12.00;7.25;;;;;10.25;92.15;98853.06;5038738;28;45387;-72
2021/12/27 07:44:17;;;;;;;;;9.00;7.00;;;;;10.24;93.67;98860.09;5038607;28;45450;-71
2021/12/27 07:46:45;;;;;;;;;10.50;8.00;;;;;10.26;93.73;98866.09;5040347;28;45549;-71
2021/12/27 07:49:11;;;;;;;;;6.75;6.50;;;;;10.24;92.84;98857.47;5043577;28;45606;-69
2021/12/27 07:51:37;;;;;;;;;7.75;6.75;;;;;10.17;92.66;98838.66;5049647;28;44734;-71
2021/12/27 07:54:03;;;;;;;;;9.00;6.75;;;;;10.17;93.30;98843.06;5027965;28;45501;-67
2021/12/27 07:56:29;;;;;;;;;9.00;8.00;;;;;10.13;93.32;98842.44;5039500;28;45354;-71
2021/12/27 07:58:54;;;;;;;;;8.00;7.00;;;;;10.08;93.90;98845.34;5037212;28;45421;-66
2021/12/27 08:01:20;;;;;;;;;6.00;6.00;;;;;9.99;93.60;98838.06;5037759;28;45299;-66
2021/12/27 08:03:47;;;;;;;;;8.00;8.00;;;;;10.05;93.51;98847.31;5038297;28;45736;-72
2021/12/27 08:06:12;;;;;;;;;9.00;6.50;;;;;10.00;93.67;98841.53;5038214;28;45423;-73
2021/12/27 08:08:38;;;;;;;;;13.00;11.00;;;;;10.00;93.69;98841.53;5038816;28;46567;-70
2021/12/27 08:11:03;;;;;;;;;9.25;7.00;;;;;9.98;93.46;98835.53;5043489;28;45269;-72
2021/12/27 08:13:29;;;;;;;;;9.00;5.25;;;;;9.94;92.88;98834.91;5041924;28;45284;-72
2021/12/27 08:15:54;;;;;;;;;11.50;7.50;;;;;9.94;93.22;98840.16;5038276;28;45561;-69
2021/12/27 08:18:20;;;;;;;;;15.00;15.00;;;;;9.96;93.15;98838.28;5037566;28;45450;-70
2021/12/27 08:20:46;;;;;;;;;10.00;8.50;;;;;9.95;93.12;98833.97;5037712;28;45718;-71
2021/12/27 08:23:11;;;;;;;;;10.50;8.00;;;;;10.03;93.12;98838.69;5037428;28;45475;-68
2021/12/27 08:25:36;;;;;;;;;11.00;6.75;;;;;10.05;92.75;98834.19;5038620;28;45076;-68
2021/12/27 08:28:02;;;;;;;;;4.75;3.25;;;;;10.02;92.80;98816.84;5020234;28;47391;-71
2021/12/27 08:30:28;;;;;;;;;8.00;6.50;;;;;10.09;92.51;98827.81;5040262;28;45498;-68
2021/12/27 08:32:56;;;;;;;;;7.00;6.75;;;;;10.11;92.20;98822.44;5036699;28;45356;-68
2021/12/27 08:35:22;;;;;;;;;12.25;10.00;;;;;10.13;92.42;98812.66;5035889;28;45282;-67
2021/12/27 08:37:47;;;;;;;;;7.00;6.25;;;;;10.14;92.38;98814.34;5035202;28;45409;-69
2021/12/27 08:40:13;;;;;;;;;8.50;5.75;;;;;10.16;92.04;98817.72;5036534;28;45239;-68
2021/12/27 08:42:40;;;;;;;;;11.75;9.00;;;;;10.16;91.59;98825.59;5037468;28;45349;-69
2021/12/27 08:45:06;;;;;;;;;6.75;5.25;;;;;10.17;92.05;98824.66;5035311;28;45371;-67
2021/12/27 08:47:31;;;;;;;;;6.50;6.00;;;;;10.20;92.12;98827.94;5034944;28;46176;-70
2021/12/27 08:49:57;;;;;;;;;14.75;10.75;;;;;10.21;91.88;98820.88;5035975;28;45316;-72
2021/12/27 08:52:22;;;;;;;;;7.00;6.75;;;;;10.19;91.36;98809.63;5035712;28;45354;-67
2021/12/27 08:54:48;;;;;;;;;9.25;9.25;;;;;10.24;91.13;98815.41;5038401;28;45522;-72
2021/12/27 08:57:13;;;;;;;;;6.00;6.00;;;;;10.26;91.27;98813.53;5036690;28;47625;-72
2021/12/27 08:59:39;;;;;;;;;8.75;5.50;;;;;10.29;91.24;98802.81;5036725;28;45374;-72
2021/12/27 09:02:05;;;;;;;;;7.25;6.00;;;;;10.33;91.70;98792.94;5038332;28;45399;-74
2021/12/27 09:04:31;;;;;;;;;6.25;5.50;;;;;10.38;91.64;98796.09;5038994;28;45422;-71
2021/12/27 09:06:56;;;;;;;;;5.00;5.00;;;;;10.40;91.22;98793.38;5020350;28;47174;-70
2021/12/27 09:09:22;;;;;;;;;7.25;4.25;;;;;10.42;90.91;98794.13;5038544;28;45324;-70
2021/12/27 09:11:47;;;;;;;;;9.75;8.00;;;;;10.41;91.87;98784.56;5038889;28;45348;-73
2021/12/27 09:14:14;;;;;;;;;7.25;5.50;;;;;10.45;90.42;98793.91;5040436;28;45626;-70
2021/12/27 09:16:41;;;;;;;;;5.00;2.75;;;;;10.50;89.89;98800.56;5039720;28;46630;-70
2021/12/27 09:19:07;;;;;;;;;5.75;3.50;;;;;10.49;90.10;98809.38;5042656;28;44718;-72
2021/12/27 09:21:33;;;;;;;;;8.25;5.50;;;;;10.51;90.81;98802.22;5040850;28;45445;-70
2021/12/27 09:23:58;;;;;;;;;6.00;3.75;;;;;10.52;89.81;98797.81;5022827;28;45506;-71
2021/12/27 09:26:24;;;;;;;;;5.25;4.00;;;;;10.53;90.16;98796.84;5021920;28;47182;-73
2021/12/27 09:28:49;;;;;;;;;3.00;2.50;;;;;10.51;89.96;98788.22;5038005;28;45347;-72
2021/12/27 09:31:15;;;;;;;;;5.00;4.00;;;;;10.49;89.66;98784.88;5037236;28;45455;-71
2021/12/27 09:33:41;;;;;;;;;5.75;5.25;;;;;10.51;90.11;98788.22;5038798;28;45490;-72
2021/12/27 09:36:07;;;;;;;;;4.75;4.25;;;;;10.60;89.75;98773.63;5038274;28;45498;-71
2021/12/27 09:38:32;;;;;;;;;5.50;5.00;;;;;10.62;89.71;98788.38;5038325;28;45246;-68
2021/12/27 09:40:57;;;;;;;;;6.00;4.25;;;;;10.63;89.60;98771.63;5038600;28;45253;-70
2021/12/27 09:43:24;;;;;;;;;6.00;3.75;;;;;10.70;89.24;98766.78;5039299;28;45173;-72
2021/12/27 09:45:50;;;;;;;;;11.00;8.25;;;;;10.71;89.52;98775.53;5037779;28;45335;-69
2021/12/27 09:48:15;;;;;;;;;5.25;4.25;;;;;10.74;89.30;98775.31;5037657;28;45306;-70
2021/12/27 09:50:50;;;;;;;;;9.00;5.00;;;;;10.73;88.73;98773.63;5037575;28;45346;-72
2021/12/27 09:53:16;;;;;;;;;3.75;3.00;;;;;10.73;89.06;98768.38;5037883;28;45280;-72
2021/12/27 09:55:42;;;;;;;;;6.25;5.00;;;;;10.73;88.74;98763.94;5038634;28;45232;-66
2021/12/27 09:58:14;;;;;;;;;7.00;6.00;;;;;10.72;89.31;98753.53;5039280;28;45237;-76
2021/12/27 10:00:42;;;;;;;;;8.25;5.50;;;;;10.78;89.66;98755.72;5037980;28;45364;-67
2021/12/27 10:03:09;;;;;;;;;6.00;4.25;;;;;10.75;88.79;98759.41;5038783;28;45580;-68
2021/12/27 10:05:35;;;;;;;;;4.75;4.75;;;;;10.73;88.17;98763.94;5036503;28;47273;-72
2021/12/27 10:08:01;;;;;;;;;4.00;4.00;;;;;10.74;88.22;98764.78;5019485;28;45436;-72
2021/12/27 10:10:27;;;;;;;;;6.75;5.00;;;;;10.69;88.79;98772.97;5038173;28;45471;-66
2021/12/27 10:12:53;;;;;;;;;4.00;3.75;;;;;10.72;88.81;98775.41;5037624;28;45791;-73
2021/12/27 10:15:21;;;;;;;;;8.00;5.00;;;;;10.65;88.84;98768.88;5038359;28;46892;-73
2021/12/27 10:17:48;;;;;;;;;5.25;4.75;;;;;10.63;89.67;98776.91;5037052;28;45238;-73
2021/12/27 10:20:20;;;;;;;;;7.75;7.25;;;;;10.60;89.54;98776.25;5037666;28;45876;-70
2021/12/27 10:22:48;;;;;;;;;6.25;6.25;;;;;10.59;90.36;98774.56;5037942;28;45371;-73
2021/12/27 10:25:26;;;;;;;;;5.00;5.00;;;;;10.56;90.05;98786.13;5038760;28;46617;-73
2021/12/27 10:27:54;;;;;;;;;29.50;27.50;;;;;10.48;90.63;98778.78;5040660;28;45386;-72
2021/12/27 10:30:29;;;;;;;;;6.50;6.50;;;;;10.43;90.35;98769.53;5038682;28;45314;-72
2021/12/27 10:33:05;;;;;;;;;6.25;6.25;;;;;10.44;90.81;98771.19;5038221;28;45432;-71
2021/12/27 10:35:42;;;;;;;;;9.75;8.50;;;;;10.40;90.61;98767.97;5039680;28;46017;-67
2021/12/27 10:38:41;;;;;;;;;5.50;5.25;;;;;10.38;91.15;98775.06;5038608;28;45349;-70
2021/12/27 10:41:09;;;;;;;;;6.50;6.25;;;;;10.40;91.28;98769.72;5020439;28;45316;-72
2021/12/27 10:43:42;;;;;;;;;9.50;7.50;;;;;10.37;91.07;98766.34;5039580;28;45346;-68
2021/12/27 10:46:11;;;;;;;;;6.00;6.00;;;;;10.37;91.16;98762.88;5036669;28;46020;-66
2021/12/27 10:48:39;;;;;;;;;9.50;6.75;;;;;10.38;91.45;98759.31;5037336;28;45190;-68
2021/12/27 10:51:06;;;;;;;;;10.00;10.00;;;;;10.41;91.10;98771.41;5038916;28;45283;-68
2021/12/27 10:53:54;;;;;;;;;38.25;31.50;;;;;10.42;90.80;98768.69;5037106;28;45571;-69
2021/12/27 10:56:22;;;;;;;;;9.00;7.00;;;;;10.45;90.73;98767.63;5036213;28;47213;-67
2021/12/27 10:58:52;;;;;;;;;13.00;8.50;;;;;10.43;91.05;98766.88;5036392;28;45347;-73
2021/12/27 11:01:20;;;;;;;;;10.00;8.00;;;;;10.45;90.75;98772.88;5036341;28;45241;-72
2021/12/27 11:03:48;;;;;;;;;7.25;7.25;;;;;10.47;91.03;98768.38;5018526;28;45576;-72
2021/12/27 11:06:20;;;;;;;;;5.50;5.50;;;;;10.47;91.50;98763.09;5036096;28;45471;-66
2021/12/27 11:08:46;;;;;;;;;4.25;4.25;;;;;10.49;90.74;98771.72;5037201;28;45191;-74
2021/12/27 11:11:14;;;;;;;;;7.50;7.25;;;;;10.50;91.46;98770.78;5038471;28;45178;-74
2021/12/27 11:13:40;;;;;;;;;8.25;7.50;;;;;10.50;91.37;98787.41;5038236;28;45486;-72
2021/12/27 11:16:06;;;;;;;;;9.00;7.75;;;;;10.47;90.84;98786.75;5036812;28;46492;-71
2021/12/27 11:18:32;;;;;;;;;15.75;13.25;;;;;10.43;91.26;98785.28;5018306;28;45363;-69
2021/12/27 11:21:02;;;;;;;;;8.50;7.00;;;;;10.41;91.72;98784.56;5036270;28;45347;-72
2021/12/27 11:23:28;;;;;;;;;6.50;6.00;;;;;10.41;91.54;98784.56;5036157;28;45531;-73
2021/12/27 11:26:09;;;;;;;;;11.00;8.50;;;;;10.38;91.44;98775.91;5035289;28;46076;-72
2021/12/27 11:28:37;;;;;;;;;8.25;6.75;;;;;10.48;91.15;98793.69;5035885;28;45295;-71
2021/12/27 11:31:15;;;;;;;;;7.00;7.00;;;;;10.43;91.36;98787.91;5037052;28;45636;-68
2021/12/27 11:34:04;;;;;;;;;6.75;6.25;;;;;10.49;91.33;98790.97;5035944;28;45315;-73
2021/12/27 11:36:32;;;;;;;;;7.75;6.00;;;;;10.55;91.86;98787.06;5024322;28;45250;-73
2021/12/27 11:39:16;;;;;;;;;8.25;7.50;;;;;10.60;91.51;98778.88;5037332;28;45350;-68